createdAt,value
2023-02-13T00:00:34.077Z,73.57
2023-02-13T00:03:20.048Z,73.48
2023-02-13T00:05:47.250Z,73.24
2023-02-13T00:08:14.343Z,73.53
2023-02-13T00:10:41.478Z,73.62
2023-02-13T00:13:08.651Z,73.55
2023-02-13T00:15:35.884Z,73.55
2023-02-13T00:18:03.415Z,73.70
2023-02-13T00:20:30.742Z,73.63
2023-02-13T00:22:59.396Z,73.66
2023-02-13T00:25:26.923Z,73.76
2023-02-13T00:27:54.254Z,73.68
2023-02-13T00:30:22.564Z,73.56
2023-02-13T00:32:51.248Z,73.74
2023-02-13T00:35:18.586Z,73.67
2023-02-13T00:37:45.711Z,73.59
2023-02-13T00:40:13.221Z,73.56
2023-02-13T00:42:40.360Z,73.72
2023-02-13T00:45:07.863Z,73.85
2023-02-13T00:47:34.995Z,73.69
2023-02-13T00:50:02.094Z,73.70
2023-02-13T00:52:29.679Z,73.79
2023-02-13T00:54:56.830Z,73.69
2023-02-13T00:57:24.032Z,73.67
2023-02-13T00:59:51.183Z,73.66
2023-02-13T01:02:18.976Z,73.61
2023-02-13T01:04:46.155Z,73.60
2023-02-13T01:07:15.677Z,73.72
2023-02-13T01:09:44.514Z,73.74
2023-02-13T01:12:12.033Z,73.82
2023-02-13T01:14:39.133Z,73.84
2023-02-13T01:17:06.546Z,73.85
2023-02-13T01:19:33.701Z,73.76
2023-02-13T01:22:00.850Z,73.84
2023-02-13T01:24:30.204Z,73.75
2023-02-13T01:26:58.881Z,73.85
2023-02-13T01:29:26.031Z,73.78
2023-02-13T01:31:53.374Z,73.84
2023-02-13T01:34:20.537Z,73.86
2023-02-13T01:36:47.636Z,73.88
2023-02-13T01:39:15.042Z,73.72
2023-02-13T01:41:43.070Z,73.89
2023-02-13T01:44:44.772Z,73.87
2023-02-13T01:47:15.328Z,73.88
2023-02-13T01:49:46.625Z,73.87
2023-02-13T01:52:14.926Z,73.85
2023-02-13T01:54:42.461Z,73.72
2023-02-13T01:57:20.107Z,73.78
2023-02-13T01:59:53.402Z,73.94
2023-02-13T02:02:21.709Z,73.84
2023-02-13T02:04:49.656Z,73.75
2023-02-13T02:07:25.991Z,73.83
2023-02-13T02:09:59.231Z,73.92
2023-02-13T02:12:38.647Z,73.92
2023-02-13T02:15:06.948Z,73.98
2023-02-13T02:17:34.207Z,73.91
2023-02-13T02:20:23.201Z,73.97
2023-02-13T02:23:11.031Z,74.04
2023-02-13T02:25:38.207Z,73.94
2023-02-13T02:28:11.986Z,73.90
2023-02-13T02:31:03.876Z,73.78
2023-02-13T02:34:08.395Z,73.98
2023-02-13T02:36:44.251Z,74.01
2023-02-13T02:39:32.580Z,74.11
2023-02-13T02:42:14.905Z,74.03
2023-02-13T02:45:00.767Z,74.09
2023-02-13T02:47:58.124Z,74.01
2023-02-13T02:50:38.562Z,73.79
2023-02-13T02:53:23.435Z,73.90
2023-02-13T02:55:59.004Z,74.01
2023-02-13T02:58:51.956Z,73.98
2023-02-13T03:01:43.352Z,74.18
2023-02-13T03:04:55.937Z,74.12
2023-02-13T03:07:23.346Z,73.97
2023-02-13T03:10:13.075Z,74.09
2023-02-13T03:13:07.753Z,73.96
2023-02-13T03:15:57.339Z,74.11
2023-02-13T03:18:43.956Z,74.14
2023-02-13T03:21:36.499Z,74.07
2023-02-13T03:24:11.972Z,74.09
2023-02-13T03:26:52.742Z,74.04
2023-02-13T03:29:56.278Z,74.05
2023-02-13T03:32:51.663Z,74.26
2023-02-13T03:35:53.599Z,74.21
2023-02-13T03:38:38.348Z,74.08
2023-02-13T03:41:18.556Z,74.07
2023-02-13T03:44:03.024Z,74.24
2023-02-13T03:46:36.704Z,74.06
2023-02-13T03:49:25.171Z,74.09
2023-02-13T03:51:58.901Z,74.10
2023-02-13T03:54:57.092Z,73.98
2023-02-13T03:57:45.180Z,74.03
2023-02-13T04:00:16.811Z,73.96
2023-02-13T04:03:16.888Z,73.98
2023-02-13T04:05:49.306Z,74.17
2023-02-13T04:08:16.584Z,74.02
2023-02-13T04:10:56.311Z,74.01
2023-02-13T04:13:42.257Z,74.21
2023-02-13T04:16:11.907Z,74.17
2023-02-13T04:18:40.022Z,74.09
2023-02-13T04:21:08.182Z,74.11
2023-02-13T04:23:36.995Z,74.12
2023-02-13T04:26:09.271Z,74.34
2023-02-13T04:28:36.498Z,74.29
2023-02-13T04:31:03.837Z,74.28
2023-02-13T04:33:31.027Z,74.28
2023-02-13T04:35:58.132Z,74.23
2023-02-13T04:38:25.247Z,74.19
2023-02-13T04:40:52.352Z,74.02
2023-02-13T04:43:19.531Z,74.19
2023-02-13T04:45:50.347Z,74.19
2023-02-13T04:48:17.511Z,74.22
2023-02-13T04:50:44.559Z,74.39
2023-02-13T04:53:11.660Z,74.40
2023-02-13T04:55:38.808Z,74.14
2023-02-13T04:58:05.937Z,74.19
2023-02-13T05:00:33.089Z,74.33
2023-02-13T05:03:11.883Z,74.33
2023-02-13T05:05:40.193Z,74.32
2023-02-13T05:08:08.874Z,74.28
2023-02-13T05:10:36.001Z,74.21
2023-02-13T05:13:03.790Z,74.20
2023-02-13T05:15:30.991Z,74.19
2023-02-13T05:17:58.101Z,74.20
2023-02-13T05:20:25.501Z,74.20
2023-02-13T05:23:12.906Z,74.43
2023-02-13T05:25:41.918Z,74.38
2023-02-13T05:28:29.527Z,74.27
2023-02-13T05:30:57.646Z,74.34
2023-02-13T05:33:25.157Z,74.31
2023-02-13T05:35:52.304Z,74.24
2023-02-13T05:38:19.381Z,74.42
2023-02-13T05:40:46.497Z,74.41
2023-02-13T05:43:13.554Z,74.45
2023-02-13T05:45:40.656Z,74.31
2023-02-13T05:48:07.890Z,74.43
2023-02-13T05:50:35.033Z,74.34
2023-02-13T05:53:02.259Z,74.33
2023-02-13T05:55:29.307Z,74.41
2023-02-13T05:57:57.978Z,74.42
2023-02-13T06:00:25.547Z,74.35
2023-02-13T06:02:52.803Z,74.45
2023-02-13T06:05:19.927Z,74.42
2023-02-13T06:07:47.028Z,74.38
2023-02-13T06:10:14.101Z,74.41
2023-02-13T06:12:43.250Z,74.36
2023-02-13T06:15:10.347Z,74.55
2023-02-13T06:17:37.423Z,74.44
2023-02-13T06:20:05.088Z,74.32
2023-02-13T06:22:32.234Z,74.42
2023-02-13T06:24:59.282Z,74.29
2023-02-13T06:27:26.382Z,74.28
2023-02-13T06:29:53.455Z,74.38
2023-02-13T06:32:20.553Z,74.41
2023-02-13T06:34:47.682Z,74.33
2023-02-13T06:37:14.780Z,74.41
2023-02-13T06:39:42.877Z,74.27
2023-02-13T06:42:10.002Z,74.34
2023-02-13T06:44:37.077Z,74.39
2023-02-13T06:47:04.268Z,74.25
2023-02-13T06:49:31.386Z,74.35
2023-02-13T06:51:58.506Z,74.36
2023-02-13T06:54:41.119Z,74.50
2023-02-13T06:57:12.779Z,74.42
2023-02-13T06:59:39.955Z,74.25
2023-02-13T07:02:07.024Z,74.28
2023-02-13T07:04:34.093Z,74.42
2023-02-13T07:07:01.169Z,74.40
2023-02-13T07:09:28.473Z,74.37
2023-02-13T07:11:55.556Z,74.23
2023-02-13T07:14:22.727Z,74.38
2023-02-13T07:16:49.900Z,74.33
2023-02-13T07:19:17.030Z,74.40
2023-02-13T07:21:44.085Z,74.48
2023-02-13T07:24:11.326Z,74.32
2023-02-13T07:26:38.506Z,74.40
2023-02-13T07:29:11.614Z,74.40
2023-02-13T07:31:40.237Z,74.31
2023-02-13T07:34:08.042Z,74.30
2023-02-13T07:36:35.152Z,74.41
2023-02-13T07:39:02.272Z,74.36
2023-02-13T07:41:29.381Z,74.45
2023-02-13T07:43:56.564Z,74.45
2023-02-13T07:46:23.790Z,74.43
2023-02-13T07:48:54.173Z,74.30
2023-02-13T07:51:25.104Z,74.42
2023-02-13T07:53:56.523Z,74.39
2023-02-13T07:56:23.802Z,74.32
2023-02-13T07:58:50.927Z,74.42
2023-02-13T08:01:18.040Z,74.29
2023-02-13T08:03:50.834Z,74.32
2023-02-13T08:06:19.549Z,74.34
2023-02-13T08:08:46.975Z,74.31
2023-02-13T08:11:45.485Z,74.22
2023-02-13T08:14:12.710Z,74.44
2023-02-13T08:16:39.877Z,74.38
2023-02-13T08:19:07.013Z,74.45
2023-02-13T08:21:35.444Z,74.28
2023-02-13T08:24:02.519Z,74.32
2023-02-13T08:26:31.814Z,74.28
2023-02-13T08:28:59.385Z,74.36
2023-02-13T08:31:27.195Z,74.51
2023-02-13T08:33:57.030Z,74.39
2023-02-13T08:36:24.697Z,74.21
2023-02-13T08:38:51.789Z,74.25
2023-02-13T08:41:21.018Z,74.36
2023-02-13T08:43:52.469Z,74.32
2023-02-13T08:46:19.709Z,74.38
2023-02-13T08:48:46.999Z,74.26
2023-02-13T08:51:15.066Z,74.37
2023-02-13T08:53:42.759Z,74.37
2023-02-13T08:56:11.034Z,74.30
2023-02-13T08:58:38.338Z,74.35
2023-02-13T09:01:07.376Z,74.36
2023-02-13T09:03:35.407Z,74.35
2023-02-13T09:06:03.146Z,74.46
2023-02-13T09:08:30.757Z,74.23
2023-02-13T09:11:02.055Z,74.25
2023-02-13T09:13:33.171Z,74.34
2023-02-13T09:16:01.628Z,74.38
2023-02-13T09:18:29.225Z,74.40
2023-02-13T09:21:06.018Z,74.31
2023-02-13T09:23:35.807Z,74.39
2023-02-13T09:26:05.497Z,74.42
2023-02-13T09:28:34.427Z,74.31
2023-02-13T09:31:16.665Z,74.18
2023-02-13T09:33:48.400Z,74.39
2023-02-13T09:36:20.167Z,74.36
2023-02-13T09:38:51.961Z,74.29
2023-02-13T09:41:32.073Z,74.29
2023-02-13T09:44:05.444Z,74.34
2023-02-13T09:46:34.400Z,74.30
2023-02-13T09:49:16.105Z,74.31
2023-02-13T09:51:45.917Z,74.38
2023-02-13T09:54:19.258Z,74.40
2023-02-13T09:57:08.332Z,74.34
2023-02-13T10:00:03.839Z,74.44
2023-02-13T10:02:59.461Z,74.37
2023-02-13T10:05:35.748Z,74.43
2023-02-13T10:08:21.003Z,74.40
2023-02-13T10:11:15.007Z,74.37
2023-02-13T10:13:59.870Z,74.26
2023-02-13T10:16:38.413Z,74.43
2023-02-13T10:19:17.237Z,74.52
2023-02-13T10:21:53.196Z,74.59
2023-02-13T10:24:42.446Z,74.48
2023-02-13T10:27:18.395Z,74.42
2023-02-13T10:30:07.095Z,74.42
2023-02-13T10:32:44.153Z,74.52
2023-02-13T10:35:29.004Z,74.48
2023-02-13T10:37:58.755Z,74.48
2023-02-13T10:40:37.645Z,74.47
2023-02-13T10:43:04.765Z,74.30
2023-02-13T10:45:57.561Z,74.43
2023-02-13T10:48:57.307Z,74.57
2023-02-13T10:51:36.027Z,74.42
2023-02-13T10:54:25.246Z,74.57
2023-02-13T10:57:01.292Z,74.44
2023-02-13T10:59:44.997Z,74.28
2023-02-13T11:02:24.429Z,74.33
2023-02-13T11:05:41.111Z,74.49
2023-02-13T11:08:23.758Z,74.43
2023-02-13T11:10:51.823Z,74.37
2023-02-13T11:13:25.765Z,74.27
2023-02-13T11:15:59.938Z,74.17
2023-02-13T11:18:31.280Z,74.43
2023-02-13T11:21:08.073Z,74.35
2023-02-13T11:23:43.091Z,74.33
2023-02-13T11:26:12.577Z,74.29
2023-02-13T11:28:54.895Z,74.28
2023-02-13T11:31:28.789Z,74.23
2023-02-13T11:33:59.039Z,74.30
2023-02-13T11:36:32.546Z,74.13
2023-02-13T11:39:06.510Z,74.19
2023-02-13T11:41:43.860Z,74.48
2023-02-13T11:44:32.082Z,74.26
2023-02-13T11:47:01.483Z,74.14
2023-02-13T11:49:34.870Z,74.26
2023-02-13T11:52:05.092Z,74.21
2023-02-13T11:54:45.785Z,74.13
2023-02-13T11:57:21.056Z,74.23
2023-02-13T11:59:50.588Z,74.07
2023-02-13T12:02:17.877Z,74.21
2023-02-13T12:04:45.811Z,74.15
2023-02-13T12:07:33.446Z,74.32
2023-02-13T12:10:09.358Z,74.41
2023-02-13T12:12:43.110Z,74.35
2023-02-13T12:15:19.171Z,74.31
2023-02-13T12:17:51.392Z,74.26
2023-02-13T12:20:18.739Z,74.23
2023-02-13T12:23:24.394Z,74.25
2023-02-13T12:25:54.606Z,74.22
2023-02-13T12:31:17.381Z,74.24
2023-02-13T12:34:26.675Z,74.48
2023-02-13T12:37:06.264Z,74.10
2023-02-13T12:39:41.377Z,74.20
2023-02-13T12:42:29.774Z,74.08
2023-02-13T12:45:05.888Z,74.01
2023-02-13T12:47:45.989Z,74.10
2023-02-13T12:50:19.207Z,74.04
2023-02-13T12:52:50.855Z,73.89
2023-02-13T12:55:43.746Z,74.00
2023-02-13T12:58:13.942Z,74.10
2023-02-13T13:01:00.023Z,73.99
2023-02-13T13:03:56.247Z,73.96
2023-02-13T13:06:43.514Z,74.01
2023-02-13T13:09:21.773Z,73.95
2023-02-13T13:11:48.911Z,74.03
2023-02-13T13:14:27.343Z,73.85
2023-02-13T13:17:23.088Z,73.81
2023-02-13T13:20:23.322Z,73.83
2023-02-13T13:22:57.248Z,73.76
2023-02-13T13:25:27.658Z,74.05
2023-02-13T13:28:01.370Z,73.76
2023-02-13T13:30:38.056Z,73.79
2023-02-13T13:33:22.809Z,73.79
2023-02-13T13:36:08.837Z,73.68
2023-02-13T13:38:54.981Z,73.77
2023-02-13T13:41:22.080Z,73.78
2023-02-13T13:44:02.722Z,73.72
2023-02-13T13:47:01.847Z,73.74
2023-02-13T13:49:38.317Z,73.55
2023-02-13T13:52:20.983Z,73.71
2023-02-13T13:54:54.226Z,73.61
2023-02-13T13:57:26.040Z,73.71
2023-02-13T13:59:59.718Z,73.54
2023-02-13T14:02:38.546Z,73.70
2023-02-13T14:05:31.845Z,73.66
2023-02-13T14:08:01.904Z,73.72
2023-02-13T14:10:29.022Z,73.70
2023-02-13T14:12:56.117Z,73.79
2023-02-13T14:15:38.899Z,73.54
2023-02-13T14:18:15.358Z,73.56
2023-02-13T14:20:43.143Z,73.54
2023-02-13T14:23:40.731Z,73.56
2023-02-13T14:26:13.897Z,73.54
2023-02-13T14:28:50.296Z,73.49
2023-02-13T14:31:27.608Z,73.45
2023-02-13T14:34:09.307Z,73.55
2023-02-13T14:36:39.681Z,73.42
2023-02-13T14:39:16.318Z,73.39
2023-02-13T14:42:01.903Z,73.57
2023-02-13T14:44:51.245Z,73.47
2023-02-13T14:47:24.415Z,73.33
2023-02-13T14:49:53.102Z,73.37
2023-02-13T14:52:27.721Z,73.43
2023-02-13T14:55:07.092Z,73.28
2023-02-13T14:57:37.955Z,73.48
2023-02-13T15:00:13.330Z,73.25
2023-02-13T15:02:48.719Z,73.28
2023-02-13T15:05:20.341Z,73.27
2023-02-13T15:07:58.895Z,73.25
2023-02-13T15:10:41.225Z,73.24
2023-02-13T15:13:24.038Z,73.26
2023-02-13T15:15:53.962Z,73.18
2023-02-13T15:18:28.124Z,73.23
2023-02-13T15:20:58.822Z,73.38
2023-02-13T15:23:32.513Z,73.13
2023-02-13T15:26:07.107Z,73.23
2023-02-13T15:28:35.854Z,73.21
2023-02-13T15:31:05.622Z,73.05
2023-02-13T15:33:34.167Z,73.16
2023-02-13T15:36:04.854Z,73.32
2023-02-13T15:38:36.916Z,73.15
2023-02-13T15:41:09.214Z,73.00
2023-02-13T15:43:48.672Z,73.09
2023-02-13T15:46:33.780Z,73.13
2023-02-13T15:49:16.824Z,73.09
2023-02-13T15:51:44.540Z,73.06
2023-02-13T15:54:33.291Z,73.11
2023-02-13T15:57:06.691Z,73.01
2023-02-13T15:59:39.755Z,73.08
2023-02-13T16:02:15.162Z,73.05
2023-02-13T16:04:42.863Z,72.83
2023-02-13T16:07:14.055Z,73.20
2023-02-13T16:09:41.523Z,73.05
2023-02-13T16:12:25.464Z,73.04
2023-02-13T16:14:52.682Z,72.96
2023-02-13T16:17:33.274Z,73.02
2023-02-13T16:20:11.483Z,72.93
2023-02-13T16:22:48.921Z,72.97
2023-02-13T16:25:21.375Z,72.96
2023-02-13T16:27:57.109Z,72.91
2023-02-13T16:30:26.259Z,72.91
2023-02-13T16:33:29.002Z,72.78
2023-02-13T16:36:11.369Z,72.85
2023-02-13T16:38:49.662Z,72.85
2023-02-13T16:41:19.999Z,72.94
2023-02-13T16:43:56.800Z,72.87
2023-02-13T16:46:36.124Z,72.93
2023-02-13T16:49:09.499Z,72.94
2023-02-13T16:51:58.797Z,72.79
2023-02-13T16:54:34.191Z,72.72
2023-02-13T16:57:03.180Z,72.76
2023-02-13T16:59:47.848Z,72.74
2023-02-13T17:02:16.772Z,72.80
2023-02-13T17:04:50.421Z,72.72
2023-02-13T17:07:26.796Z,72.65
2023-02-13T17:09:59.791Z,72.83
2023-02-13T17:12:28.962Z,72.64
2023-02-13T17:14:58.418Z,72.79
2023-02-13T17:17:28.686Z,72.69
2023-02-13T17:19:55.996Z,72.63
2023-02-13T17:22:30.829Z,72.66
2023-02-13T17:24:59.185Z,72.58
2023-02-13T17:27:26.976Z,72.63
2023-02-13T17:29:54.113Z,72.68
2023-02-13T17:32:25.014Z,72.59
2023-02-13T17:34:52.498Z,72.51
2023-02-13T17:37:21.073Z,72.65
2023-02-13T17:39:49.254Z,72.59
2023-02-13T17:42:20.287Z,72.69
2023-02-13T17:44:47.569Z,72.63
2023-02-13T17:47:14.717Z,72.65
2023-02-13T17:49:42.259Z,72.63
2023-02-13T17:52:15.033Z,72.56
2023-02-13T17:54:42.310Z,72.52
2023-02-13T17:57:09.825Z,72.49
2023-02-13T17:59:37.054Z,72.48
2023-02-13T18:02:04.325Z,72.41
2023-02-13T18:04:31.432Z,72.56
2023-02-13T18:06:58.602Z,72.49
2023-02-13T18:09:25.837Z,72.72
2023-02-13T18:12:04.756Z,72.56
2023-02-13T18:14:33.498Z,72.36
2023-02-13T18:17:00.863Z,72.45
2023-02-13T18:19:28.334Z,72.45
2023-02-13T18:21:55.521Z,72.43
2023-02-13T18:24:22.679Z,72.43
2023-02-13T18:26:49.807Z,72.42
2023-02-13T18:29:17.060Z,72.48
2023-02-13T18:31:44.287Z,72.51
2023-02-13T18:34:11.515Z,72.37
2023-02-13T18:36:38.616Z,72.43
2023-02-13T18:39:05.718Z,72.25
2023-02-13T18:41:32.840Z,72.30
2023-02-13T18:43:59.966Z,72.26
2023-02-13T18:46:27.101Z,72.36
2023-02-13T18:48:54.221Z,72.42
2023-02-13T18:51:21.332Z,72.60
2023-02-13T18:53:48.517Z,72.52
2023-02-13T18:56:15.643Z,72.42
2023-02-13T18:58:42.772Z,72.41
2023-02-13T19:01:12.169Z,72.34
2023-02-13T19:03:39.295Z,72.33
2023-02-13T19:06:11.743Z,72.41
2023-02-13T19:08:39.356Z,72.62
2023-02-13T19:11:08.786Z,72.46
2023-02-13T19:13:36.529Z,72.48
2023-02-13T19:16:05.204Z,72.36
2023-02-13T19:18:32.439Z,72.34
2023-02-13T19:21:04.322Z,72.41
2023-02-13T19:23:31.609Z,72.22
2023-02-13T19:25:58.761Z,72.56
2023-02-13T19:28:25.984Z,72.20
2023-02-13T19:30:53.186Z,72.35
2023-02-13T19:33:20.309Z,72.26
2023-02-13T19:35:57.848Z,72.33
2023-02-13T19:38:25.000Z,72.35
2023-02-13T19:40:52.259Z,72.33
2023-02-13T19:43:19.391Z,72.28
2023-02-13T19:45:46.459Z,72.18
2023-02-13T19:48:13.719Z,72.24
2023-02-13T19:50:41.247Z,72.18
2023-02-13T19:53:08.579Z,72.13
2023-02-13T19:55:35.974Z,72.12
2023-02-13T19:58:03.238Z,72.18
2023-02-13T20:00:30.741Z,72.32
2023-02-13T20:03:04.934Z,72.23
2023-02-13T20:05:38.518Z,72.28
2023-02-13T20:08:06.108Z,72.01
2023-02-13T20:10:33.250Z,72.05
2023-02-13T20:13:01.523Z,71.98
2023-02-13T20:15:31.491Z,71.97
2023-02-13T20:17:59.518Z,72.10
2023-02-13T20:20:28.687Z,71.93
2023-02-13T20:22:55.808Z,71.91
2023-02-13T20:25:23.190Z,72.05
2023-02-13T20:27:50.223Z,72.04
2023-02-13T20:30:17.503Z,72.01
2023-02-13T20:32:44.786Z,72.00
2023-02-13T20:35:11.904Z,71.90
2023-02-13T20:37:39.250Z,72.17
2023-02-13T20:40:07.062Z,71.95
2023-02-13T20:42:34.605Z,71.82
2023-02-13T20:45:01.901Z,72.20
2023-02-13T20:47:29.314Z,72.07
2023-02-13T20:49:56.487Z,72.08
2023-02-13T20:52:23.613Z,72.09
2023-02-13T20:54:50.819Z,71.95
2023-02-13T20:57:18.799Z,71.84
2023-02-13T20:59:46.519Z,71.84
2023-02-13T21:02:13.693Z,71.86
2023-02-13T21:04:40.948Z,71.90
2023-02-13T21:07:09.445Z,71.93
2023-02-13T21:09:37.425Z,71.84
2023-02-13T21:12:05.267Z,72.05
2023-02-13T21:14:32.546Z,72.00
2023-02-13T21:16:59.649Z,72.04
2023-02-13T21:19:26.878Z,72.02
2023-02-13T21:21:54.205Z,72.01
2023-02-13T21:24:22.946Z,71.93
2023-02-13T21:26:52.495Z,72.07
2023-02-13T21:29:19.951Z,71.92
2023-02-13T21:31:47.877Z,71.94
2023-02-13T21:34:16.864Z,71.91
2023-02-13T21:36:44.170Z,71.98
2023-02-13T21:39:13.015Z,71.98
2023-02-13T21:41:42.397Z,71.88
2023-02-13T21:44:14.256Z,71.93
2023-02-13T21:46:42.951Z,72.00
2023-02-13T21:49:16.014Z,71.99
2023-02-13T21:51:43.622Z,71.82
2023-02-13T21:54:11.739Z,71.77
2023-02-13T21:56:41.203Z,71.75
2023-02-13T21:59:08.498Z,71.69
2023-02-13T22:01:47.520Z,71.81
2023-02-13T22:04:15.225Z,71.58
2023-02-13T22:06:42.938Z,71.72
2023-02-13T22:09:15.719Z,71.87
2023-02-13T22:11:43.155Z,71.77
2023-02-13T22:14:17.294Z,71.63
2023-02-13T22:16:45.674Z,71.81
2023-02-13T22:19:15.513Z,71.68
2023-02-13T22:21:42.895Z,71.68
2023-02-13T22:24:10.069Z,71.72
2023-02-13T22:26:39.744Z,71.58
2023-02-13T22:29:11.374Z,71.58
2023-02-13T22:31:39.141Z,71.49
2023-02-13T22:34:06.971Z,71.45
2023-02-13T22:36:39.111Z,71.58
2023-02-13T22:39:08.239Z,71.57
2023-02-13T22:41:35.669Z,71.69
2023-02-13T22:44:02.795Z,71.70
2023-02-13T22:46:32.114Z,71.72
2023-02-13T22:48:59.669Z,71.75
2023-02-13T22:51:29.815Z,71.48
2023-02-13T22:53:57.841Z,71.56
2023-02-13T22:56:25.933Z,71.45
2023-02-13T22:58:53.652Z,71.45
2023-02-13T23:01:22.910Z,71.43
2023-02-13T23:03:50.476Z,71.44
2023-02-13T23:06:17.859Z,71.46
2023-02-13T23:08:45.092Z,71.31
2023-02-13T23:11:35.174Z,71.46
2023-02-13T23:14:03.295Z,71.47
2023-02-13T23:16:51.201Z,71.49
2023-02-13T23:19:18.357Z,71.48
2023-02-13T23:21:45.589Z,71.65
2023-02-13T23:24:12.765Z,71.41
2023-02-13T23:26:39.939Z,71.50
2023-02-13T23:29:07.094Z,71.51
2023-02-13T23:31:34.474Z,71.43
2023-02-13T23:34:01.575Z,71.49
2023-02-13T23:36:28.907Z,71.46
2023-02-13T23:38:56.049Z,71.52
2023-02-13T23:41:23.135Z,71.40
2023-02-13T23:43:50.253Z,71.42
2023-02-13T23:46:17.401Z,71.58
2023-02-13T23:48:46.125Z,71.57
2023-02-13T23:51:13.348Z,71.57
2023-02-13T23:53:40.612Z,71.72
2023-02-13T23:56:07.748Z,71.73
2023-02-13T23:58:35.139Z,71.65
